sensor_id;sensor_type;location;lat;lon;timestamp;pressure;altitude;pressure_sealevel;temperature;humidity
59951;BME280;45812;53.540;9.774;2022-07-25T00:01:56;101245.34;;;22.74;64.12
59951;BME280;45812;53.540;9.774;2022-07-25T00:04:22;101249.94;;;22.73;64.17
59951;BME280;45812;53.540;9.774;2022-07-25T00:06:47;101240.59;;;22.69;64.14
59951;BME280;45812;53.540;9.774;2022-07-25T00:09:12;101237.28;;;22.67;63.98
59951;BME280;45812;53.540;9.774;2022-07-25T00:11:38;101238.34;;;22.66;63.78
59951;BME280;45812;53.540;9.774;2022-07-25T00:14:03;101233.13;;;22.64;63.46
59951;BME280;45812;53.540;9.774;2022-07-25T00:16:29;101233.38;;;22.63;63.39
59951;BME280;45812;53.540;9.774;2022-07-25T00:18:54;101225.47;;;22.61;63.27
59951;BME280;45812;53.540;9.774;2022-07-25T00:21:19;101230.06;;;22.61;63.57
59951;BME280;45812;53.540;9.774;2022-07-25T00:23:45;101226.75;;;22.59;63.33
59951;BME280;45812;53.540;9.774;2022-07-25T00:26:10;101227.81;;;22.58;63.57
59951;BME280;45812;53.540;9.774;2022-07-25T00:28:35;101224.28;;;22.57;63.04
59951;BME280;45812;53.540;9.774;2022-07-25T00:31:00;101231.84;;;22.55;63.39
59951;BME280;45812;53.540;9.774;2022-07-25T00:33:26;101223.34;;;22.52;63.87
59951;BME280;45812;53.540;9.774;2022-07-25T00:35:51;101221.06;;;22.49;64.55
59951;BME280;45812;53.540;9.774;2022-07-25T00:38:16;101225.28;;;22.45;65.40
59951;BME280;45812;53.540;9.774;2022-07-25T00:40:42;101219.75;;;22.40;65.52
59951;BME280;45812;53.540;9.774;2022-07-25T00:43:07;101223.16;;;22.35;66.30
59951;BME280;45812;53.540;9.774;2022-07-25T00:45:33;101211.31;;;22.29;66.44
59951;BME280;45812;53.540;9.774;2022-07-25T00:47:58;101217.44;;;22.25;66.63
59951;BME280;45812;53.540;9.774;2022-07-25T00:50:24;101208.34;;;22.19;66.58
59951;BME280;45812;53.540;9.774;2022-07-25T00:52:49;101203.38;;;22.16;66.88
59951;BME280;45812;53.540;9.774;2022-07-25T00:55:15;101209.88;;;22.15;66.54
59951;BME280;45812;53.540;9.774;2022-07-25T00:57:40;101205.75;;;22.13;66.44
59951;BME280;45812;53.540;9.774;2022-07-25T01:00:08;101196.75;;;22.12;66.41
59951;BME280;45812;53.540;9.774;2022-07-25T01:02:34;101201.34;;;22.12;66.95
59951;BME280;45812;53.540;9.774;2022-07-25T01:04:59;101207.38;;;22.14;66.61
59951;BME280;45812;53.540;9.774;2022-07-25T01:07:25;101197.59;;;22.13;66.77
59951;BME280;45812;53.540;9.774;2022-07-25T01:09:50;101197.38;;;22.14;65.87
59951;BME280;45812;53.540;9.774;2022-07-25T01:12:16;101199.03;;;22.15;65.39
59951;BME280;45812;53.540;9.774;2022-07-25T01:14:41;101205.88;;;22.18;65.07
59951;BME280;45812;53.540;9.774;2022-07-25T01:17:07;101193.97;;;22.19;64.44
59951;BME280;45812;53.540;9.774;2022-07-25T01:19:32;101197.72;;;22.18;63.85
59951;BME280;45812;53.540;9.774;2022-07-25T01:21:57;101190.88;;;22.15;62.95
59951;BME280;45812;53.540;9.774;2022-07-25T01:24:23;101181.94;;;22.15;62.39
59951;BME280;45812;53.540;9.774;2022-07-25T01:26:48;101185.69;;;22.14;62.24
59951;BME280;45812;53.540;9.774;2022-07-25T01:29:13;101184.25;;;22.11;61.67
59951;BME280;45812;53.540;9.774;2022-07-25T01:31:39;101183.41;;;22.11;60.62
59951;BME280;45812;53.540;9.774;2022-07-25T01:34:04;101186.97;;;22.11;60.43
59951;BME280;45812;53.540;9.774;2022-07-25T01:36:29;101177.75;;;22.12;59.54
59951;BME280;45812;53.540;9.774;2022-07-25T01:38:55;101170.69;;;22.11;58.67
59951;BME280;45812;53.540;9.774;2022-07-25T01:41:20;101165.06;;;22.13;58.00
59951;BME280;45812;53.540;9.774;2022-07-25T01:43:45;101168.84;;;21.75;59.51
59951;BME280;45812;53.540;9.774;2022-07-25T01:46:10;101172.06;;;22.02;58.38
59951;BME280;45812;53.540;9.774;2022-07-25T01:48:36;101170.09;;;22.09;57.50
59951;BME280;45812;53.540;9.774;2022-07-25T01:51:01;101165.25;;;22.11;57.05
59951;BME280;45812;53.540;9.774;2022-07-25T01:53:26;101157.13;;;22.11;56.33
59951;BME280;45812;53.540;9.774;2022-07-25T01:55:52;101149.00;;;22.11;56.18
59951;BME280;45812;53.540;9.774;2022-07-25T01:58:17;101159.84;;;22.11;55.98
59951;BME280;45812;53.540;9.774;2022-07-25T02:00:42;101151.72;;;22.11;55.77
59951;BME280;45812;53.540;9.774;2022-07-25T02:03:08;101146.53;;;22.10;55.99
59951;BME280;45812;53.540;9.774;2022-07-25T02:05:51;101138.63;;;22.08;55.97
59951;BME280;45812;53.540;9.774;2022-07-25T02:08:17;101139.44;;;22.09;55.81
59951;BME280;45812;53.540;9.774;2022-07-25T02:10:42;101132.38;;;22.08;55.59
59951;BME280;45812;53.540;9.774;2022-07-25T02:13:07;101129.91;;;22.06;55.81
59951;BME280;45812;53.540;9.774;2022-07-25T02:15:34;101127.63;;;22.03;56.28
59951;BME280;45812;53.540;9.774;2022-07-25T02:18:00;101125.38;;;22.00;56.71
59951;BME280;45812;53.540;9.774;2022-07-25T02:20:25;101128.53;;;21.97;56.56
59951;BME280;45812;53.540;9.774;2022-07-25T02:22:50;101117.09;;;21.95;56.68
59951;BME280;45812;53.540;9.774;2022-07-25T02:25:16;101120.84;;;21.94;57.30
59951;BME280;45812;53.540;9.774;2022-07-25T02:27:41;101109.66;;;21.90;57.09
59951;BME280;45812;53.540;9.774;2022-07-25T02:30:07;101106.94;;;21.90;57.27
59951;BME280;45812;53.540;9.774;2022-07-25T02:32:32;101115.53;;;21.87;57.53
59951;BME280;45812;53.540;9.774;2022-07-25T02:34:58;101113.06;;;21.86;57.20
59951;BME280;45812;53.540;9.774;2022-07-25T02:37:23;101097.72;;;21.80;57.00
59951;BME280;45812;53.540;9.774;2022-07-25T02:39:49;101103.13;;;21.80;56.25
59951;BME280;45812;53.540;9.774;2022-07-25T02:42:14;101099.00;;;21.77;56.92
59951;BME280;45812;53.540;9.774;2022-07-25T02:44:40;101094.03;;;21.74;56.45
59951;BME280;45812;53.540;9.774;2022-07-25T02:47:05;101093.66;;;21.70;57.22
59951;BME280;45812;53.540;9.774;2022-07-25T02:49:30;101093.06;;;21.68;57.62
59951;BME280;45812;53.540;9.774;2022-07-25T02:51:55;101090.81;;;21.65;57.72
59951;BME280;45812;53.540;9.774;2022-07-25T02:54:21;101078.78;;;21.61;57.49
59951;BME280;45812;53.540;9.774;2022-07-25T02:56:47;101080.91;;;21.59;57.11
59951;BME280;45812;53.540;9.774;2022-07-25T02:59:12;101081.97;;;21.58;57.30
59951;BME280;45812;53.540;9.774;2022-07-25T03:01:37;101078.63;;;21.56;56.83
59951;BME280;45812;53.540;9.774;2022-07-25T03:04:03;101078.63;;;21.56;56.97
59951;BME280;45812;53.540;9.774;2022-07-25T03:06:28;101076.97;;;21.55;56.87
59951;BME280;45812;53.540;9.774;2022-07-25T03:08:54;101070.97;;;21.53;57.16
59951;BME280;45812;53.540;9.774;2022-07-25T03:11:19;101073.06;;;21.51;57.03
59951;BME280;45812;53.540;9.774;2022-07-25T03:13:44;101068.72;;;21.50;56.94
59951;BME280;45812;53.540;9.774;2022-07-25T03:16:10;101060.81;;;21.49;56.75
59951;BME280;45812;53.540;9.774;2022-07-25T03:18:35;101059.75;;;21.50;56.92
59951;BME280;45812;53.540;9.774;2022-07-25T03:21:01;101058.09;;;21.49;57.24
59951;BME280;45812;53.540;9.774;2022-07-25T03:23:26;101058.94;;;21.49;57.23
59951;BME280;45812;53.540;9.774;2022-07-25T03:25:53;101048.09;;;21.49;57.40
59951;BME280;45812;53.540;9.774;2022-07-25T03:28:18;101049.97;;;21.49;57.39
59951;BME280;45812;53.540;9.774;2022-07-25T03:30:44;101046.44;;;21.48;57.72
59951;BME280;45812;53.540;9.774;2022-07-25T03:33:09;101048.34;;;21.48;58.00
59951;BME280;45812;53.540;9.774;2022-07-25T03:35:36;101038.56;;;21.46;57.98
59951;BME280;45812;53.540;9.774;2022-07-25T03:38:01;101037.97;;;21.44;58.18
59951;BME280;45812;53.540;9.774;2022-07-25T03:40:27;101039.84;;;21.44;59.35
59951;BME280;45812;53.540;9.774;2022-07-25T03:42:52;101029.47;;;21.41;59.45
59951;BME280;45812;53.540;9.774;2022-07-25T03:45:17;101032.41;;;21.39;59.64
59951;BME280;45812;53.540;9.774;2022-07-25T03:47:43;101026.59;;;21.36;59.64
59951;BME280;45812;53.540;9.774;2022-07-25T03:50:09;101028.47;;;21.35;59.94
59951;BME280;45812;53.540;9.774;2022-07-25T03:52:34;101016.00;;;21.34;60.05
59951;BME280;45812;53.540;9.774;2022-07-25T03:54:59;101016.81;;;21.35;60.32
59951;BME280;45812;53.540;9.774;2022-07-25T03:57:25;101006.00;;;21.35;60.14
59951;BME280;45812;53.540;9.774;2022-07-25T03:59:50;101005.16;;;21.34;59.75
59951;BME280;45812;53.540;9.774;2022-07-25T04:02:15;101006.00;;;21.35;59.97
59951;BME280;45812;53.540;9.774;2022-07-25T04:04:41;101002.22;;;21.36;59.35
59951;BME280;45812;53.540;9.774;2022-07-25T04:07:06;100998.47;;;21.37;59.76
59951;BME280;45812;53.540;9.774;2022-07-25T04:09:31;100999.53;;;20.99;61.75
59951;BME280;45812;53.540;9.774;2022-07-25T04:11:56;100996.53;;;20.89;62.53
59951;BME280;45812;53.540;9.774;2022-07-25T04:14:22;100993.47;;;20.85;63.19
59951;BME280;45812;53.540;9.774;2022-07-25T04:16:47;100984.75;;;20.83;63.34
59951;BME280;45812;53.540;9.774;2022-07-25T04:19:12;100982.88;;;20.84;63.72
59951;BME280;45812;53.540;9.774;2022-07-25T04:21:38;100980.78;;;20.86;63.55
59951;BME280;45812;53.540;9.774;2022-07-25T04:24:03;100969.50;;;20.89;63.44
59951;BME280;45812;53.540;9.774;2022-07-25T04:26:29;100972.78;;;20.91;63.21
59951;BME280;45812;53.540;9.774;2022-07-25T04:28:54;100968.56;;;20.95;62.87
59951;BME280;45812;53.540;9.774;2022-07-25T04:31:22;100964.13;;;21.01;62.66
59951;BME280;45812;53.540;9.774;2022-07-25T04:33:47;100958.06;;;21.05;62.36
59951;BME280;45812;53.540;9.774;2022-07-25T04:36:12;100959.59;;;21.13;62.08
59951;BME280;45812;53.540;9.774;2022-07-25T04:38:38;100950.78;;;21.17;63.09
59951;BME280;45812;53.540;9.774;2022-07-25T04:41:03;100956.16;;;21.24;63.20
59951;BME280;45812;53.540;9.774;2022-07-25T04:43:29;100949.00;;;21.30;63.40
59951;BME280;45812;53.540;9.774;2022-07-25T04:45:54;100948.06;;;21.36;63.71
59951;BME280;45812;53.540;9.774;2022-07-25T04:48:19;100940.09;;;21.41;64.39
59951;BME280;45812;53.540;9.774;2022-07-25T04:50:45;100934.81;;;21.46;64.69
59951;BME280;45812;53.540;9.774;2022-07-25T04:53:10;100941.41;;;21.50;64.82
59951;BME280;45812;53.540;9.774;2022-07-25T04:55:35;100932.59;;;21.55;64.45
59951;BME280;45812;53.540;9.774;2022-07-25T04:58:03;100925.91;;;21.57;64.78
59951;BME280;45812;53.540;9.774;2022-07-25T05:00:28;100927.09;;;21.61;64.50
59951;BME280;45812;53.540;9.774;2022-07-25T05:02:53;100921.78;;;21.66;64.92
59951;BME280;45812;53.540;9.774;2022-07-25T05:05:19;100906.69;;;21.70;65.26
59951;BME280;45812;53.540;9.774;2022-07-25T05:07:45;100913.31;;;21.74;64.45
59951;BME280;45812;53.540;9.774;2022-07-25T05:10:10;100910.50;;;21.81;64.67
59951;BME280;45812;53.540;9.774;2022-07-25T05:12:36;100912.25;;;21.87;64.04
59951;BME280;45812;53.540;9.774;2022-07-25T05:15:03;100912.13;;;21.94;63.31
59951;BME280;45812;53.540;9.774;2022-07-25T05:17:28;100902.63;;;22.03;63.17
59951;BME280;45812;53.540;9.774;2022-07-25T05:19:54;100906.06;;;22.10;62.50
59951;BME280;45812;53.540;9.774;2022-07-25T05:22:19;100899.94;;;22.15;60.97
59951;BME280;45812;53.540;9.774;2022-07-25T05:24:44;100892.75;;;22.20;58.97
59951;BME280;45812;53.540;9.774;2022-07-25T05:27:10;100892.03;;;22.25;57.86
59951;BME280;45812;53.540;9.774;2022-07-25T05:29:35;100889.66;;;22.28;57.70
59951;BME280;45812;53.540;9.774;2022-07-25T05:32:00;100893.09;;;22.35;57.73
59951;BME280;45812;53.540;9.774;2022-07-25T05:34:26;100885.63;;;22.43;57.72
59951;BME280;45812;53.540;9.774;2022-07-25T05:36:51;100885.84;;;22.53;57.15
59951;BME280;45812;53.540;9.774;2022-07-25T05:39:16;100883.34;;;22.63;57.64
59951;BME280;45812;53.540;9.774;2022-07-25T05:41:41;100876.72;;;22.71;56.95
59951;BME280;45812;53.540;9.774;2022-07-25T05:44:07;100874.19;;;22.81;57.26
59951;BME280;45812;53.540;9.774;2022-07-25T05:46:33;100876.34;;;22.90;56.24
59951;BME280;45812;53.540;9.774;2022-07-25T05:48:59;100873.38;;;22.92;56.75
59951;BME280;45812;53.540;9.774;2022-07-25T05:51:24;100868.75;;;22.92;57.04
59951;BME280;45812;53.540;9.774;2022-07-25T05:53:50;100865.81;;;22.94;57.37
59951;BME280;45812;53.540;9.774;2022-07-25T05:56:15;100860.72;;;22.98;56.73
59951;BME280;45812;53.540;9.774;2022-07-25T05:58:40;100856.19;;;23.03;57.52
59951;BME280;45812;53.540;9.774;2022-07-25T06:01:07;100854.25;;;23.15;56.14
59951;BME280;45812;53.540;9.774;2022-07-25T06:03:35;100855.84;;;23.28;55.91
59951;BME280;45812;53.540;9.774;2022-07-25T06:06:00;100851.38;;;23.39;55.79
59951;BME280;45812;53.540;9.774;2022-07-25T06:08:25;100837.16;;;23.48;54.64
59951;BME280;45812;53.540;9.774;2022-07-25T06:10:58;100845.50;;;23.59;55.23
59951;BME280;45812;53.540;9.774;2022-07-25T06:13:25;100831.66;;;23.60;55.06
59951;BME280;45812;53.540;9.774;2022-07-25T06:15:50;100834.72;;;23.64;55.92
59951;BME280;45812;53.540;9.774;2022-07-25T06:18:16;100836.75;;;23.73;55.30
59951;BME280;45812;53.540;9.774;2022-07-25T06:20:41;100831.22;;;23.85;54.20
59951;BME280;45812;53.540;9.774;2022-07-25T06:23:07;100834.09;;;23.95;54.82
59951;BME280;45812;53.540;9.774;2022-07-25T06:25:32;100835.06;;;24.06;55.65
59951;BME280;45812;53.540;9.774;2022-07-25T06:27:57;100836.00;;;24.16;55.27
59951;BME280;45812;53.540;9.774;2022-07-25T06:30:22;100830.13;;;24.25;54.41
59951;BME280;45812;53.540;9.774;2022-07-25T06:32:48;100835.50;;;24.36;54.08
59951;BME280;45812;53.540;9.774;2022-07-25T06:35:14;100826.09;;;24.49;53.10
59951;BME280;45812;53.540;9.774;2022-07-25T06:37:40;100825.16;;;24.60;53.99
59951;BME280;45812;53.540;9.774;2022-07-25T06:40:05;100830.22;;;24.73;51.95
59951;BME280;45812;53.540;9.774;2022-07-25T06:42:31;100829.00;;;24.91;52.29
59951;BME280;45812;53.540;9.774;2022-07-25T06:45:02;100829.50;;;25.10;52.06
59951;BME280;45812;53.540;9.774;2022-07-25T06:47:28;100835.63;;;25.22;51.87
59951;BME280;45812;53.540;9.774;2022-07-25T06:49:53;100827.84;;;25.36;51.31
59951;BME280;45812;53.540;9.774;2022-07-25T06:52:18;100828.72;;;25.47;51.25
59951;BME280;45812;53.540;9.774;2022-07-25T06:54:44;100809.72;;;25.52;50.72
59951;BME280;45812;53.540;9.774;2022-07-25T06:57:09;100809.72;;;25.52;49.85
59951;BME280;45812;53.540;9.774;2022-07-25T06:59:34;100827.19;;;25.56;50.10
59951;BME280;45812;53.540;9.774;2022-07-25T07:01:59;100820.13;;;25.60;49.16
59951;BME280;45812;53.540;9.774;2022-07-25T07:04:25;100820.13;;;25.65;48.96
59951;BME280;45812;53.540;9.774;2022-07-25T07:06:50;100815.88;;;25.69;48.15
59951;BME280;45812;53.540;9.774;2022-07-25T07:09:15;100808.25;;;25.76;46.90
59951;BME280;45812;53.540;9.774;2022-07-25T07:11:41;100811.06;;;25.86;47.33
59951;BME280;45812;53.540;9.774;2022-07-25T07:14:06;100805.59;;;25.86;46.10
59951;BME280;45812;53.540;9.774;2022-07-25T07:16:31;100799.63;;;25.89;46.98
59951;BME280;45812;53.540;9.774;2022-07-25T07:18:56;100804.28;;;25.94;45.15
59951;BME280;45812;53.540;9.774;2022-07-25T07:21:22;100798.31;;;26.02;44.93
59951;BME280;45812;53.540;9.774;2022-07-25T07:23:48;100796.94;;;26.00;44.19
59951;BME280;45812;53.540;9.774;2022-07-25T07:26:13;100800.25;;;26.07;44.83
59951;BME280;45812;53.540;9.774;2022-07-25T07:28:39;100797.28;;;26.18;45.33
59951;BME280;45812;53.540;9.774;2022-07-25T07:31:04;100781.78;;;26.24;45.52
59951;BME280;45812;53.540;9.774;2022-07-25T07:33:29;100780.97;;;26.23;43.70
59951;BME280;45812;53.540;9.774;2022-07-25T07:35:56;100777.94;;;26.20;43.92
59951;BME280;45812;53.540;9.774;2022-07-25T07:38:23;100780.38;;;26.21;44.60
59951;BME280;45812;53.540;9.774;2022-07-25T07:40:48;100772.47;;;26.20;45.85
59951;BME280;45812;53.540;9.774;2022-07-25T07:43:13;100771.69;;;26.24;45.12
59951;BME280;45812;53.540;9.774;2022-07-25T07:45:39;100757.47;;;26.17;44.10
59951;BME280;45812;53.540;9.774;2022-07-25T07:48:05;100759.91;;;26.14;45.05
59951;BME280;45812;53.540;9.774;2022-07-25T07:50:31;100755.25;;;26.14;44.68
59951;BME280;45812;53.540;9.774;2022-07-25T07:52:56;100761.00;;;26.13;46.93
59951;BME280;45812;53.540;9.774;2022-07-25T07:55:23;100762.09;;;26.17;44.84
59951;BME280;45812;53.540;9.774;2022-07-25T07:58:07;100749.59;;;26.26;45.66
59951;BME280;45812;53.540;9.774;2022-07-25T08:00:33;100750.72;;;26.40;46.67
59951;BME280;45812;53.540;9.774;2022-07-25T08:03:04;100744.53;;;26.60;46.06
59951;BME280;45812;53.540;9.774;2022-07-25T08:05:35;100745.91;;;26.78;45.03
59951;BME280;45812;53.540;9.774;2022-07-25T08:08:01;100743.72;;;26.90;44.22
59951;BME280;45812;53.540;9.774;2022-07-25T08:10:29;100741.03;;;27.00;43.61
59951;BME280;45812;53.540;9.774;2022-07-25T08:12:55;100742.66;;;27.11;43.08
59951;BME280;45812;53.540;9.774;2022-07-25T08:15:21;100732.81;;;27.21;43.62
59951;BME280;45812;53.540;9.774;2022-07-25T08:17:50;100737.44;;;27.30;42.83
59951;BME280;45812;53.540;9.774;2022-07-25T08:20:17;100738.25;;;27.41;42.69
59951;BME280;45812;53.540;9.774;2022-07-25T08:22:45;100723.47;;;27.57;42.08
59951;BME280;45812;53.540;9.774;2022-07-25T08:25:19;100723.13;;;27.89;42.85
59951;BME280;45812;53.540;9.774;2022-07-25T08:27:45;100724.09;;;28.14;41.25
59951;BME280;45812;53.540;9.774;2022-07-25T08:30:12;100719.41;;;28.29;40.44
59951;BME280;45812;53.540;9.774;2022-07-25T08:32:58;100719.81;;;28.52;39.94
59951;BME280;45812;53.540;9.774;2022-07-25T08:35:25;100715.84;;;28.68;40.84
59951;BME280;45812;53.540;9.774;2022-07-25T08:37:51;100703.44;;;28.86;40.34
59951;BME280;45812;53.540;9.774;2022-07-25T08:40:19;100701.16;;;28.93;39.68
59951;BME280;45812;53.540;9.774;2022-07-25T08:42:44;100708.00;;;28.95;40.38
59951;BME280;45812;53.540;9.774;2022-07-25T08:45:11;100699.09;;;29.09;40.76
59951;BME280;45812;53.540;9.774;2022-07-25T08:47:39;100704.53;;;29.14;39.45
59951;BME280;45812;53.540;9.774;2022-07-25T08:50:08;100704.63;;;29.04;39.56
59951;BME280;45812;53.540;9.774;2022-07-25T08:52:34;100695.31;;;29.05;41.12
59951;BME280;45812;53.540;9.774;2022-07-25T08:55:10;100690.59;;;29.10;40.96
59951;BME280;45812;53.540;9.774;2022-07-25T08:57:37;100691.13;;;29.12;40.36
59951;BME280;45812;53.540;9.774;2022-07-25T09:00:06;100691.75;;;29.04;39.70
59951;BME280;45812;53.540;9.774;2022-07-25T09:02:32;100695.72;;;28.88;41.49
59951;BME280;45812;53.540;9.774;2022-07-25T09:04:58;100699.84;;;28.85;40.77
59951;BME280;45812;53.540;9.774;2022-07-25T09:07:34;100683.94;;;28.87;41.50
59951;BME280;45812;53.540;9.774;2022-07-25T09:10:14;100685.53;;;28.93;42.24
59951;BME280;45812;53.540;9.774;2022-07-25T09:12:41;100681.63;;;29.00;42.17
59951;BME280;45812;53.540;9.774;2022-07-25T09:15:07;100677.19;;;29.09;40.29
59951;BME280;45812;53.540;9.774;2022-07-25T09:17:36;100676.75;;;29.25;41.63
59951;BME280;45812;53.540;9.774;2022-07-25T09:20:03;100683.06;;;29.50;40.56
59951;BME280;45812;53.540;9.774;2022-07-25T09:22:30;100670.00;;;29.66;38.92
59951;BME280;45812;53.540;9.774;2022-07-25T09:24:55;100669.81;;;29.81;39.87
59951;BME280;45812;53.540;9.774;2022-07-25T09:27:21;100665.28;;;29.90;38.71
59951;BME280;45812;53.540;9.774;2022-07-25T09:29:46;100669.84;;;30.00;39.91
59951;BME280;45812;53.540;9.774;2022-07-25T09:32:17;100671.34;;;30.11;37.89
59951;BME280;45812;53.540;9.774;2022-07-25T09:34:45;100673.66;;;30.23;38.07
59951;BME280;45812;53.540;9.774;2022-07-25T09:37:12;100662.75;;;30.36;38.73
59951;BME280;45812;53.540;9.774;2022-07-25T09:39:47;100659.41;;;30.39;38.12
59951;BME280;45812;53.540;9.774;2022-07-25T09:42:17;100663.91;;;30.49;37.69
59951;BME280;45812;53.540;9.774;2022-07-25T09:44:43;100660.78;;;30.56;38.94
59951;BME280;45812;53.540;9.774;2022-07-25T09:47:10;100659.47;;;30.72;37.52
59951;BME280;45812;53.540;9.774;2022-07-25T09:49:43;100658.47;;;30.82;37.10
59951;BME280;45812;53.540;9.774;2022-07-25T09:52:12;100644.97;;;30.99;36.97
59951;BME280;45812;53.540;9.774;2022-07-25T09:54:38;100657.31;;;31.15;36.84
59951;BME280;45812;53.540;9.774;2022-07-25T09:57:04;100658.28;;;31.38;35.66
59951;BME280;45812;53.540;9.774;2022-07-25T09:59:29;100650.84;;;31.66;34.41
59951;BME280;45812;53.540;9.774;2022-07-25T10:02:04;100648.25;;;31.97;33.83
59951;BME280;45812;53.540;9.774;2022-07-25T10:04:44;100655.97;;;32.09;34.36
59951;BME280;45812;53.540;9.774;2022-07-25T10:07:11;100657.59;;;32.10;33.86
59951;BME280;45812;53.540;9.774;2022-07-25T10:09:43;100655.25;;;32.17;33.72
59951;BME280;45812;53.540;9.774;2022-07-25T10:12:10;100659.50;;;32.37;33.41
59951;BME280;45812;53.540;9.774;2022-07-25T10:14:37;100652.44;;;32.44;33.28
59951;BME280;45812;53.540;9.774;2022-07-25T10:17:03;100647.78;;;32.53;33.02
59951;BME280;45812;53.540;9.774;2022-07-25T10:19:43;100654.28;;;32.35;33.28
59951;BME280;45812;53.540;9.774;2022-07-25T10:22:10;100642.66;;;32.38;33.52
59951;BME280;45812;53.540;9.774;2022-07-25T10:24:36;100642.25;;;32.31;34.22
59951;BME280;45812;53.540;9.774;2022-07-25T10:27:22;100639.91;;;31.88;34.28
59951;BME280;45812;53.540;9.774;2022-07-25T10:29:52;100640.53;;;31.85;35.58
59951;BME280;45812;53.540;9.774;2022-07-25T10:32:18;100634.75;;;31.73;36.09
59951;BME280;45812;53.540;9.774;2022-07-25T10:34:51;100640.53;;;31.85;34.45
59951;BME280;45812;53.540;9.774;2022-07-25T10:37:18;100629.63;;;32.16;34.66
59951;BME280;45812;53.540;9.774;2022-07-25T10:39:50;100621.81;;;32.99;33.28
59951;BME280;45812;53.540;9.774;2022-07-25T10:42:17;100629.69;;;33.54;31.41
59951;BME280;45812;53.540;9.774;2022-07-25T10:44:47;100627.91;;;33.19;31.96
59951;BME280;45812;53.540;9.774;2022-07-25T10:47:13;100624.59;;;32.99;32.53
59951;BME280;45812;53.540;9.774;2022-07-25T10:49:44;100622.91;;;32.90;34.05
59951;BME280;45812;53.540;9.774;2022-07-25T10:52:16;100624.22;;;32.92;33.43
59951;BME280;45812;53.540;9.774;2022-07-25T10:54:54;100622.41;;;32.65;33.34
59951;BME280;45812;53.540;9.774;2022-07-25T10:57:20;100613.84;;;32.44;33.21
59951;BME280;45812;53.540;9.774;2022-07-25T10:59:45;100612.22;;;32.43;33.75
59951;BME280;45812;53.540;9.774;2022-07-25T11:02:11;100609.28;;;32.40;33.75
59951;BME280;45812;53.540;9.774;2022-07-25T11:05:16;100616.78;;;32.12;34.37
59951;BME280;45812;53.540;9.774;2022-07-25T11:07:35;100619.81;;;32.24;34.94
59951;BME280;45812;53.540;9.774;2022-07-25T11:10:04;100611.91;;;32.45;34.61
59951;BME280;45812;53.540;9.774;2022-07-25T11:12:29;100607.22;;;32.99;33.05
59951;BME280;45812;53.540;9.774;2022-07-25T11:15:06;100607.72;;;34.41;31.67
59951;BME280;45812;53.540;9.774;2022-07-25T11:17:32;100609.88;;;35.37;30.34
59951;BME280;45812;53.540;9.774;2022-07-25T11:20:09;100609.44;;;35.56;29.21
59951;BME280;45812;53.540;9.774;2022-07-25T11:22:35;100602.88;;;34.84;29.86
59951;BME280;45812;53.540;9.774;2022-07-25T11:25:08;100603.47;;;34.17;30.41
59951;BME280;45812;53.540;9.774;2022-07-25T11:27:34;100601.53;;;34.35;30.58
59951;BME280;45812;53.540;9.774;2022-07-25T11:30:09;100592.88;;;34.63;31.28
59951;BME280;45812;53.540;9.774;2022-07-25T11:32:52;100586.81;;;34.69;30.00
59951;BME280;45812;53.540;9.774;2022-07-25T11:35:29;100593.13;;;36.05;28.04
59951;BME280;45812;53.540;9.774;2022-07-25T11:37:56;100588.47;;;36.96;27.06
59951;BME280;45812;53.540;9.774;2022-07-25T11:40:21;100597.69;;;35.80;27.53
59951;BME280;45812;53.540;9.774;2022-07-25T11:42:52;100600.69;;;36.37;26.83
59951;BME280;45812;53.540;9.774;2022-07-25T11:45:23;100590.13;;;37.09;26.58
59951;BME280;45812;53.540;9.774;2022-07-25T11:48:01;100596.22;;;38.44;25.17
59951;BME280;45812;53.540;9.774;2022-07-25T11:50:31;100594.97;;;38.69;22.59
59951;BME280;45812;53.540;9.774;2022-07-25T11:52:59;100568.56;;;38.63;22.81
59951;BME280;45812;53.540;9.774;2022-07-25T11:55:28;100574.59;;;39.13;22.92
59951;BME280;45812;53.540;9.774;2022-07-25T11:57:57;100566.84;;;38.03;23.82
59951;BME280;45812;53.540;9.774;2022-07-25T12:00:23;100554.69;;;36.82;25.09
59951;BME280;45812;53.540;9.774;2022-07-25T12:02:48;100559.09;;;35.84;26.38
59951;BME280;45812;53.540;9.774;2022-07-25T12:05:17;100553.41;;;35.00;27.61
59951;BME280;45812;53.540;9.774;2022-07-25T12:07:51;100557.13;;;34.96;27.92
59951;BME280;45812;53.540;9.774;2022-07-25T12:10:20;100548.31;;;35.32;26.96
59951;BME280;45812;53.540;9.774;2022-07-25T12:12:54;100545.75;;;35.56;26.49
59951;BME280;45812;53.540;9.774;2022-07-25T12:17:58;100550.09;;;37.35;26.00
59951;BME280;45812;53.540;9.774;2022-07-25T12:20:31;100556.25;;;36.58;25.43
59951;BME280;45812;53.540;9.774;2022-07-25T12:22:59;100556.75;;;35.44;26.77
59951;BME280;45812;53.540;9.774;2022-07-25T12:25:25;100567.03;;;35.05;27.21
59951;BME280;45812;53.540;9.774;2022-07-25T12:27:52;100566.09;;;35.60;26.96
59951;BME280;45812;53.540;9.774;2022-07-25T12:30:17;100561.50;;;35.85;26.92
59951;BME280;45812;53.540;9.774;2022-07-25T12:32:43;100556.75;;;35.65;26.52
59951;BME280;45812;53.540;9.774;2022-07-25T12:35:09;100557.00;;;35.51;27.48
59951;BME280;45812;53.540;9.774;2022-07-25T12:37:36;100567.47;;;35.16;27.63
59951;BME280;45812;53.540;9.774;2022-07-25T12:40:03;100553.94;;;34.76;28.16
59951;BME280;45812;53.540;9.774;2022-07-25T12:42:28;100567.00;;;34.58;29.41
59951;BME280;45812;53.540;9.774;2022-07-25T12:44:54;100576.34;;;34.11;30.06
59951;BME280;45812;53.540;9.774;2022-07-25T12:47:21;100563.75;;;33.53;30.50
59951;BME280;45812;53.540;9.774;2022-07-25T12:49:46;100560.50;;;33.02;31.11
59951;BME280;45812;53.540;9.774;2022-07-25T12:52:12;100557.56;;;32.68;31.72